KRIL/RIL METAR and TAF weather

Enter ICAO airport designator
Station Type Date Time Source
KRIL METAR 2020/07/10 14:53 UTC NOAA

KRIL 101453Z AUTO 00000KT 10SM CLR 19/M04 A3029 RMK AO2 SLP182 T01891039 51015


Station Type Date Time Source
KRIL Decoded METAR 2020/07/10 14:53 UTC NOAA

RIFLE GARFIELD COUNTY RGNL, CO, United States (KRIL) 39-31N 107-44W 1678M
Jul 10, 2020 - 10:53 AM EDT / 2020.07.10 1453 UTC
Wind: Calm:0
Visibility: 10 mile(s):0
Sky conditions: clear
Temperature: 66.0 F (18.9 C)
Dew Point: 25.0 F (-3.9 C)
Relative Humidity: 20%
Pressure (altimeter): 30.29 in. Hg (1025 hPa)
Pressure tendency: 0.04 inches (1.5 hPa) higher than three hours ago
ob: KRIL 101453Z AUTO 00000KT 10SM CLR 19/M04 A3029 RMK AO2 SLP182 T01891039 51015
cycle: 15

Station Type Date Time Source
KRIL TAF 2020/07/10 12:27 UTC NOAA

TAF KRIL 101125Z 1012/1112 17004KT P6SM SKC
FM101800 27011G19KT P6SM SKC
FM110200 23007KT P6SM FEW250

Example: see airport list